createdAt,value
2018-11-05T08:00:54.645Z,100703.98
2018-11-05T08:06:12.494Z,100710.48
2018-11-05T08:16:44.368Z,100702.39
2018-11-05T08:21:58.297Z,100685.16
2018-11-05T08:27:12.804Z,100674.42
2018-11-05T08:42:48.102Z,100678.92
2018-11-05T08:48:00.845Z,100672.17
2018-11-05T08:53:12.936Z,100657.16
2018-11-05T08:58:32.765Z,100653.23
2018-11-05T09:03:42.768Z,100640.73
2018-11-05T09:09:00.760Z,100650.59
2018-11-05T09:14:08.964Z,100658.23
2018-11-05T09:19:22.220Z,100641.80
2018-11-05T09:24:33.273Z,100639.63
2018-11-05T09:29:46.938Z,100644.91
2018-11-05T09:34:55.729Z,100647.34
2018-11-05T09:40:08.036Z,100642.19
2018-11-05T09:45:13.481Z,100650.63
2018-11-05T09:50:22.543Z,100638.31
2018-11-05T09:55:32.301Z,100633.59
2018-11-05T10:00:38.372Z,100628.28
2018-11-05T10:05:45.183Z,100618.22
2018-11-05T10:10:48.434Z,100625.44
2018-11-05T10:15:52.047Z,100626.72
2018-11-05T10:20:58.656Z,100623.91
2018-11-05T10:25:58.707Z,100618.69
2018-11-05T10:31:06.718Z,100627.30
2018-11-05T10:36:21.914Z,100623.84
2018-11-05T10:41:24.314Z,100620.96
2018-11-05T10:46:40.198Z,100626.18
2018-11-05T10:51:41.528Z,100614.57
2018-11-05T10:56:45.003Z,100594.47
2018-11-05T11:01:52.095Z,100588.23
2018-11-05T11:07:01.476Z,100595.44
2018-11-05T11:12:03.915Z,100585.98
2018-11-05T11:17:04.773Z,100581.22
2018-11-05T11:22:06.180Z,100571.37
2018-11-05T11:27:11.051Z,100584.88
2018-11-05T11:32:19.698Z,100573.06
2018-11-05T11:37:20.341Z,100566.88
2018-11-05T11:42:21.525Z,100574.84
2018-11-05T11:47:22.552Z,100544.78
2018-11-05T11:52:30.275Z,100528.72
2018-11-05T11:57:27.597Z,100532.92
2018-11-05T12:02:30.523Z,100520.52
2018-11-05T12:07:30.133Z,100524.70
2018-11-05T12:12:37.552Z,100514.84
2018-11-05T12:17:41.237Z,100512.63
2018-11-05T12:22:39.211Z,100509.65
2018-11-05T12:27:37.755Z,100499.15
2018-11-05T12:32:35.983Z,100499.71
2018-11-05T12:37:34.807Z,100505.98
2018-11-05T12:42:33.020Z,100500.95
2018-11-05T12:47:33.744Z,100480.30
2018-11-05T12:52:29.755Z,100482.17
2018-11-05T12:57:28.433Z,100483.88
2018-11-05T13:02:28.975Z,100485.52
2018-11-05T13:07:26.681Z,100472.81
2018-11-05T13:12:25.637Z,100473.95
2018-11-05T13:17:23.630Z,100467.18
2018-11-05T13:22:19.995Z,100454.16
2018-11-05T13:27:15.834Z,100450.05
2018-11-05T13:32:17.068Z,100445.00
2018-11-05T13:37:13.567Z,100442.08
2018-11-05T13:42:09.368Z,100457.37
2018-11-05T13:47:12.618Z,100456.98
2018-11-05T13:52:09.134Z,100448.14
2018-11-05T13:57:08.204Z,100445.31
2018-11-05T14:02:06.443Z,100439.61
2018-11-05T14:07:05.091Z,100442.98
2018-11-05T14:12:05.819Z,100442.40
2018-11-05T14:17:03.579Z,100438.05
2018-11-05T14:22:01.959Z,100432.42
2018-11-05T14:27:00.340Z,100411.44
2018-11-05T14:32:01.294Z,100412.02
2018-11-05T14:37:00.436Z,100412.52
2018-11-05T14:41:59.157Z,100421.88
2018-11-05T14:46:57.687Z,100418.92
2018-11-05T14:51:56.507Z,100410.94
2018-11-05T14:57:01.035Z,100418.38
2018-11-05T15:01:58.596Z,100416.82
2018-11-05T15:07:06.374Z,100421.05
2018-11-05T15:12:01.493Z,100407.97
2018-11-05T15:17:00.467Z,100402.69
2018-11-05T15:21:59.101Z,100412.30
2018-11-05T15:27:02.589Z,100411.33
2018-11-05T15:32:00.326Z,100411.61
2018-11-05T15:37:00.099Z,100409.43
2018-11-05T15:42:01.007Z,100413.94
2018-11-05T15:47:03.123Z,100421.44
2018-11-05T15:52:07.561Z,100427.04
2018-11-05T15:57:12.460Z,100432.01
